NCAR-RAP Real-Time Weather Data

Output produced by METARs form (08 May 2021  02:18 UTC)
found at http://weather.rap.ucar.edu/surface/
 
KGED 080154Z AUTO 10SM -RA OVC065 12/09 A2986 RMK AO2 RAB34 SLP111 P0000 T01170089
KGED 080054Z AUTO 28009G15KT 10SM OVC070 12/08 A2986 RMK AO2 RAE04 SLP110 P0000 T01220083
KGED 072354Z AUTO 28010G15KT 10SM -RA OVC065 13/09 A2985 RMK AO2 RAB27 SLP108 P0000 60000 T01330089 10200 20133 53014
KGED 072254Z AUTO 00000KT 10SM BKN060 BKN080 OVC100 17/06 A2981 RMK AO2 SLP094 T01670061
KGED 072154Z AUTO 14005KT 10SM FEW060 SCT100 17/06 A2981 RMK AO2 SLP095 T01670056
KGED 072054Z AUTO 12008KT 10SM FEW100 17/06 A2981 RMK AO2 LTG DSNT SW SLP093 T01670056 56013
KGED 071954Z AUTO 11009KT 10SM CLR 18/04 A2982 RMK AO2 SLP098 T01830039
KGED 071854Z AUTO 07008KT 10SM CLR 19/03 A2983 RMK AO2 SLP101 T01890033
KGED 071754Z AUTO 09007KT 10SM CLR 19/05 A2985 RMK AO2 SLP106 T01940050 10206 20133 58015
KGED 071654Z AUTO 13007G15KT 10SM CLR 19/04 A2986 RMK AO2 SLP111 T01940039
KGED 071554Z AUTO 10009KT 10SM CLR 19/06 A2988 RMK AO2 SLP118 T01940061
KGED 071454Z AUTO 14006KT 10SM CLR 18/06 A2989 RMK AO2 SLP121 T01780056 56008
KGED 071354Z AUTO 08007KT 10SM CLR 18/06 A2989 RMK AO2 SLP122 T01780061
KGED 071254Z AUTO 07007KT 10SM CLR 16/07 A2990 RMK AO2 SLP125 T01610072
KGED 071154Z AUTO 00000KT 10SM CLR 14/07 A2992 RMK AO2 SLP129 T01390072 10139 20072 53001
KGED 071054Z AUTO 00000KT 10SM CLR 09/07 A2991 RMK AO2 SLP127 T00890067